CMB858 Details

Departure: Diego Garcia (FJDG)
Arrival: Bahrain International Airport (OBBI)
Route: BUMMR L516 KITAL P570 ITURA M762 VAXAS M762 MIVEK P574 RUKOR N571 TUDIS P699 IMGUX ULBEK Y001 LABOV EMISA B457 DENVO DENVO1
Notes: USTRANSCOM CONTRACT FLIGHT


Current Weather Information
FJDG 200855Z 26005KT 9999 FEW023 FEW050 BKN100 33/27 A2983 RMK SLP098 8/870 T03300268 57020
OBBI 200930Z 33013KT CAVOK 23/10 Q1014 NOSIG